createdAt,value
2022-10-19T00:00:25.381Z,100198.66
2022-10-19T00:01:27.530Z,100193.31
2022-10-19T00:02:29.750Z,100208.84
2022-10-19T00:03:32.376Z,100198.91
2022-10-19T00:04:34.870Z,100207.38
2022-10-19T00:05:37.047Z,100203.59
2022-10-19T00:06:39.316Z,100203.47
2022-10-19T00:07:41.452Z,100200.69
2022-10-19T00:08:44.222Z,100197.81
2022-10-19T00:09:46.496Z,100203.22
2022-10-19T00:10:48.682Z,100197.81
2022-10-19T00:11:51.185Z,100198.75
2022-10-19T00:12:53.345Z,100197.78
2022-10-19T00:13:56.996Z,100197.06
2022-10-19T00:14:59.328Z,100198.69
2022-10-19T00:16:02.061Z,100196.91
2022-10-19T00:17:04.236Z,100197.72
2022-10-19T00:18:07.900Z,100197.16
2022-10-19T00:19:14.791Z,100203.81
2022-10-19T00:20:17.027Z,100200.63
2022-10-19T00:21:19.777Z,100197.94
2022-10-19T00:22:22.476Z,100197.81
2022-10-19T00:23:24.641Z,100192.50
2022-10-19T00:24:26.809Z,100197.50
2022-10-19T00:25:28.968Z,100186.94
2022-10-19T00:26:32.034Z,100186.16
2022-10-19T00:27:35.642Z,100195.91
2022-10-19T00:28:38.001Z,100190.47
2022-10-19T00:29:40.399Z,100193.09
2022-10-19T00:30:42.589Z,100197.50
2022-10-19T00:31:44.896Z,100187.25
2022-10-19T00:32:47.116Z,100188.91
2022-10-19T00:33:49.438Z,100193.97
2022-10-19T00:34:51.580Z,100196.59
2022-10-19T00:35:53.740Z,100177.38
2022-10-19T00:36:55.887Z,100186.84
2022-10-19T00:37:58.043Z,100185.91
2022-10-19T00:39:01.174Z,100184.03
2022-10-19T00:40:03.603Z,100189.03
2022-10-19T00:41:05.830Z,100185.41
2022-10-19T00:42:12.141Z,100170.44
2022-10-19T00:43:20.223Z,100178.41
2022-10-19T00:44:42.531Z,100184.63
2022-10-19T00:45:44.838Z,100175.91
2022-10-19T00:46:51.634Z,100182.78
2022-10-19T00:47:54.337Z,100178.38
2022-10-19T00:49:10.051Z,100182.72
2022-10-19T00:50:14.547Z,100174.31
2022-10-19T00:51:17.238Z,100179.41
2022-10-19T00:52:22.064Z,100174.13
2022-10-19T00:53:26.657Z,100171.66
2022-10-19T00:54:31.276Z,100167.31
2022-10-19T00:55:34.528Z,100179.78
2022-10-19T00:56:40.612Z,100178.84
2022-10-19T00:57:42.846Z,100167.75
2022-10-19T00:58:45.773Z,100166.34
2022-10-19T00:59:48.167Z,100171.75
2022-10-19T01:00:50.505Z,100169.56
2022-10-19T01:01:53.766Z,100175.09
2022-10-19T01:02:56.465Z,100162.28
2022-10-19T01:03:59.053Z,100163.81
2022-10-19T01:05:01.801Z,100163.91
2022-10-19T01:06:04.231Z,100165.47
2022-10-19T01:07:08.184Z,100168.63
2022-10-19T01:08:11.686Z,100160.56
2022-10-19T01:09:13.914Z,100157.34
2022-10-19T01:10:16.399Z,100158.72
2022-10-19T01:11:40.284Z,100159.50
2022-10-19T01:13:02.685Z,100156.97
2022-10-19T01:14:38.729Z,100159.50
2022-10-19T01:15:57.555Z,100152.13
2022-10-19T01:17:24.301Z,100156.97
2022-10-19T01:18:53.526Z,100161.09
2022-10-19T01:20:07.524Z,100157.59
2022-10-19T01:21:09.710Z,100146.06
2022-10-19T01:22:24.335Z,100159.25
2022-10-19T01:23:53.199Z,100156.78
2022-10-19T01:25:22.913Z,100145.91
2022-10-19T01:27:12.404Z,100144.53
2022-10-19T01:28:37.498Z,100138.34
2022-10-19T01:30:06.876Z,100128.28
2022-10-19T01:31:29.250Z,100130.16
2022-10-19T01:32:46.312Z,100129.16
2022-10-19T01:34:14.927Z,100121.84
2022-10-19T01:35:28.630Z,100123.41
2022-10-19T01:36:47.120Z,100121.84
2022-10-19T01:37:55.022Z,100105.81
2022-10-19T01:39:05.514Z,100103.16
2022-10-19T01:40:30.431Z,100104.31
2022-10-19T01:41:38.455Z,100102.22
2022-10-19T01:43:03.005Z,100100.13
2022-10-19T01:44:33.099Z,100097.53
2022-10-19T01:45:44.979Z,100097.47
2022-10-19T01:46:55.295Z,100087.69
2022-10-19T01:48:06.952Z,100094.50
2022-10-19T01:49:38.159Z,100084.59
2022-10-19T01:50:55.633Z,100082.81
2022-10-19T01:52:01.795Z,100087.97
2022-10-19T01:53:07.938Z,100083.28
2022-10-19T01:54:14.017Z,100079.47
2022-10-19T01:55:18.867Z,100078.88
2022-10-19T01:56:25.270Z,100071.13
2022-10-19T01:57:36.375Z,100068.50
2022-10-19T01:58:43.077Z,100064.63
2022-10-19T01:59:47.210Z,100068.09
2022-10-19T02:00:52.893Z,100061.19
2022-10-19T02:01:55.948Z,100064.69
2022-10-19T02:03:00.490Z,100057.53
2022-10-19T02:04:03.821Z,100064.53
2022-10-19T02:05:07.723Z,100042.97
2022-10-19T02:06:11.466Z,100055.25
2022-10-19T02:07:14.034Z,100045.34
2022-10-19T02:08:24.475Z,100048.63
2022-10-19T02:09:26.697Z,100040.75
2022-10-19T02:10:31.054Z,100042.38
2022-10-19T02:11:35.697Z,100042.88
2022-10-19T02:12:38.149Z,100040.19
2022-10-19T02:13:42.624Z,100037.41
2022-10-19T02:14:47.514Z,100024.50
2022-10-19T02:15:52.885Z,100035.31
2022-10-19T02:17:02.369Z,100033.91
2022-10-19T02:18:06.966Z,100036.44
2022-10-19T02:19:11.716Z,100037.03
2022-10-19T02:20:15.591Z,100033.66
2022-10-19T02:21:18.668Z,100031.03
2022-10-19T02:22:21.455Z,100037.22
2022-10-19T02:23:26.548Z,100030.81
2022-10-19T02:24:28.756Z,100025.28
2022-10-19T02:25:31.564Z,100035.50
2022-10-19T02:26:34.220Z,100028.19
2022-10-19T02:27:39.682Z,100015.00
2022-10-19T02:28:41.870Z,100029.84
2022-10-19T02:29:44.042Z,100030.44
2022-10-19T02:30:46.296Z,100029.56
2022-10-19T02:31:48.977Z,100025.97
2022-10-19T02:32:51.534Z,100026.13
2022-10-19T02:33:54.364Z,100023.50
2022-10-19T02:34:57.071Z,100028.63
2022-10-19T02:36:00.030Z,100029.44
2022-10-19T02:37:02.255Z,100023.50
2022-10-19T02:38:07.325Z,100035.91
2022-10-19T02:39:09.892Z,100027.03
2022-10-19T02:40:12.504Z,100029.91
2022-10-19T02:41:20.639Z,100023.81
2022-10-19T02:42:32.990Z,100020.28
2022-10-19T02:43:39.303Z,100023.75
2022-10-19T02:45:00.094Z,100017.94
2022-10-19T02:46:20.375Z,100025.16
2022-10-19T02:47:27.708Z,100016.59
2022-10-19T02:48:33.198Z,100022.59
2022-10-19T02:49:37.567Z,100020.88
2022-10-19T02:50:44.227Z,100021.59
2022-10-19T02:52:07.122Z,100019.00
2022-10-19T02:53:09.313Z,100016.78
2022-10-19T02:54:11.459Z,100016.25
2022-10-19T02:55:13.705Z,100017.09
2022-10-19T02:56:15.867Z,100011.69
2022-10-19T02:57:20.901Z,100011.03
2022-10-19T02:58:23.134Z,100017.75
2022-10-19T02:59:25.547Z,100013.59
2022-10-19T03:00:27.676Z,100007.84
2022-10-19T03:01:30.058Z,100009.09
2022-10-19T03:02:32.253Z,99999.75
2022-10-19T03:03:34.419Z,100000.94
2022-10-19T03:04:36.752Z,99997.44
2022-10-19T03:05:39.351Z,100003.97
2022-10-19T03:06:41.870Z,100001.06
2022-10-19T03:07:44.038Z,99993.16
2022-10-19T03:08:46.362Z,99999.28
2022-10-19T03:09:49.204Z,99998.81
2022-10-19T03:10:51.358Z,99999.84
2022-10-19T03:11:55.397Z,99999.66
2022-10-19T03:12:58.246Z,100004.59
2022-10-19T03:14:00.437Z,99988.91
2022-10-19T03:15:02.651Z,99995.25
2022-10-19T03:16:10.216Z,99988.97
2022-10-19T03:17:12.456Z,99983.44
2022-10-19T03:18:17.233Z,99989.38
2022-10-19T03:19:19.441Z,99988.56
2022-10-19T03:20:21.600Z,99979.81
2022-10-19T03:21:23.834Z,99973.03
2022-10-19T03:22:26.018Z,99977.31
2022-10-19T03:23:29.192Z,99977.25
2022-10-19T03:24:32.138Z,99981.53
2022-10-19T03:25:34.350Z,99985.16
2022-10-19T03:26:37.325Z,99969.22
2022-10-19T03:27:39.510Z,99971.03
2022-10-19T03:28:42.200Z,99974.03
2022-10-19T03:29:44.854Z,99969.75
2022-10-19T03:30:47.260Z,99968.69
2022-10-19T03:31:49.525Z,99978.38
2022-10-19T03:32:51.724Z,99978.56
2022-10-19T03:33:53.935Z,99981.13
2022-10-19T03:34:56.139Z,99980.03
2022-10-19T03:36:25.397Z,99982.41
2022-10-19T03:37:27.517Z,99986.28
2022-10-19T03:38:29.700Z,99987.50
2022-10-19T03:39:31.844Z,99990.16
2022-10-19T03:40:34.067Z,99988.78
2022-10-19T03:41:37.179Z,99994.13
2022-10-19T03:42:39.323Z,99990.97
2022-10-19T03:43:41.497Z,99985.38
2022-10-19T03:44:43.678Z,99995.03
2022-10-19T03:45:46.401Z,99994.06
2022-10-19T03:46:48.546Z,99995.81
2022-10-19T03:47:51.747Z,99997.72
2022-10-19T03:48:54.138Z,99992.50
2022-10-19T03:49:56.331Z,99988.47
2022-10-19T03:51:06.383Z,99986.56
2022-10-19T03:52:10.011Z,99988.22
2022-10-19T03:53:12.270Z,99984.00
2022-10-19T03:54:16.655Z,99995.06
2022-10-19T03:55:18.833Z,99993.38
2022-10-19T03:56:23.790Z,99988.25
2022-10-19T03:57:26.001Z,99990.44
2022-10-19T03:58:28.186Z,99994.72
2022-10-19T03:59:30.450Z,99997.22
2022-10-19T04:00:32.608Z,100002.34
2022-10-19T04:01:37.892Z,99996.03
2022-10-19T04:02:40.096Z,100004.09
2022-10-19T04:03:42.355Z,99993.38
2022-10-19T04:04:44.545Z,99992.63
2022-10-19T04:05:46.766Z,99994.66
2022-10-19T04:06:50.196Z,99994.53
2022-10-19T04:07:52.390Z,99994.91
2022-10-19T04:08:54.817Z,99990.09
2022-10-19T04:09:57.087Z,99990.25
2022-10-19T04:11:10.835Z,100004.16
2022-10-19T04:12:13.011Z,100003.56
2022-10-19T04:13:15.875Z,100002.63
2022-10-19T04:14:31.805Z,100003.72
2022-10-19T04:15:35.099Z,100001.22
2022-10-19T04:16:37.291Z,100002.88
2022-10-19T04:17:39.483Z,100006.44
2022-10-19T04:18:41.696Z,100004.38
2022-10-19T04:19:43.855Z,100010.34
2022-10-19T04:20:46.055Z,100004.22
2022-10-19T04:21:49.105Z,99998.94
2022-10-19T04:22:54.295Z,100001.47
2022-10-19T04:24:14.270Z,99997.78
2022-10-19T04:25:16.603Z,99997.72
2022-10-19T04:26:18.989Z,99998.75
2022-10-19T04:27:21.136Z,99997.38
2022-10-19T04:28:23.354Z,99988.47
2022-10-19T04:29:29.668Z,99985.81
2022-10-19T04:30:32.199Z,99986.81
2022-10-19T04:31:34.690Z,99986.47
2022-10-19T04:32:36.874Z,99985.22
2022-10-19T04:33:40.074Z,99987.56
2022-10-19T04:34:42.366Z,99983.84
2022-10-19T04:35:44.561Z,99987.47
2022-10-19T04:36:46.698Z,99986.75
2022-10-19T04:37:48.887Z,99984.53
2022-10-19T04:38:51.578Z,99981.06
2022-10-19T04:39:53.767Z,99980.03
2022-10-19T04:40:56.257Z,99982.13
2022-10-19T04:41:58.468Z,99976.84
2022-10-19T04:43:00.601Z,99973.38
2022-10-19T04:44:06.505Z,99973.16
2022-10-19T04:45:09.086Z,99980.81
2022-10-19T04:46:14.119Z,99971.63
2022-10-19T04:47:16.295Z,99966.53
2022-10-19T04:48:18.539Z,99976.97
2022-10-19T04:49:20.789Z,99979.44
2022-10-19T04:50:24.303Z,99965.31
2022-10-19T04:51:31.343Z,99971.38
2022-10-19T04:52:35.128Z,99968.94
2022-10-19T04:53:40.593Z,99974.34
2022-10-19T04:54:42.778Z,99973.81
2022-10-19T04:55:44.957Z,99970.13
2022-10-19T04:56:47.110Z,99969.06
2022-10-19T04:57:49.300Z,99970.59
2022-10-19T04:58:54.853Z,99971.09
2022-10-19T04:59:57.018Z,99969.47
2022-10-19T05:00:59.203Z,99975.16
2022-10-19T05:02:01.404Z,99966.59
2022-10-19T05:03:03.577Z,99972.63
2022-10-19T05:04:05.751Z,99974.34
2022-10-19T05:05:08.979Z,99965.84
2022-10-19T05:06:12.594Z,99963.34
2022-10-19T05:07:14.781Z,99974.22
2022-10-19T05:08:17.075Z,99963.72
2022-10-19T05:09:19.263Z,99963.72
2022-10-19T05:10:21.577Z,99962.78
2022-10-19T05:11:24.115Z,99966.88
2022-10-19T05:12:26.314Z,99949.75
2022-10-19T05:13:28.505Z,99954.03
2022-10-19T05:14:35.002Z,99955.28
2022-10-19T05:15:38.947Z,99951.47
2022-10-19T05:16:41.283Z,99951.66
2022-10-19T05:17:43.443Z,99950.94
2022-10-19T05:18:50.046Z,99948.38
2022-10-19T05:19:52.228Z,99946.06
2022-10-19T05:21:21.721Z,99947.41
2022-10-19T05:22:24.697Z,99949.22
2022-10-19T05:23:27.066Z,99950.13
2022-10-19T05:24:29.281Z,99943.03
2022-10-19T05:25:31.429Z,99942.09
2022-10-19T05:26:33.675Z,99928.34
2022-10-19T05:27:36.164Z,99927.56
2022-10-19T05:28:39.485Z,99939.00
2022-10-19T05:29:41.675Z,99934.06
2022-10-19T05:30:48.843Z,99925.44
2022-10-19T05:31:51.379Z,99926.34
2022-10-19T05:32:53.571Z,99923.41
2022-10-19T05:33:56.261Z,99917.38
2022-10-19T05:34:58.694Z,99917.53
2022-10-19T05:36:16.920Z,99917.38
2022-10-19T05:37:19.215Z,99908.81
2022-10-19T05:38:21.625Z,99913.09
2022-10-19T05:39:23.823Z,99907.09
2022-10-19T05:40:25.986Z,99916.72
2022-10-19T05:41:28.474Z,99911.38
2022-10-19T05:42:30.702Z,99910.59
2022-10-19T05:43:33.043Z,99922.97
2022-10-19T05:44:35.897Z,99923.84
2022-10-19T05:45:38.126Z,99923.16
2022-10-19T05:46:40.539Z,99915.31
2022-10-19T05:47:42.699Z,99922.38
2022-10-19T05:48:46.262Z,99922.31
2022-10-19T05:49:48.441Z,99910.84
2022-10-19T05:50:54.857Z,99915.59
2022-10-19T05:51:57.070Z,99915.53
2022-10-19T05:52:59.286Z,99917.91
2022-10-19T05:54:01.516Z,99911.19
2022-10-19T05:55:03.875Z,99904.06
2022-10-19T05:56:07.928Z,99896.09
2022-10-19T05:57:10.172Z,99898.72
2022-10-19T05:58:12.349Z,99904.94
2022-10-19T05:59:17.654Z,99906.22
2022-10-19T06:00:19.801Z,99895.38
2022-10-19T06:01:22.008Z,99898.19
2022-10-19T06:02:24.607Z,99899.34
2022-10-19T06:03:27.772Z,99904.31
2022-10-19T06:04:30.143Z,99904.56
2022-10-19T06:05:32.307Z,99898.91
2022-10-19T06:06:34.581Z,99908.47
2022-10-19T06:07:37.116Z,99897.72
2022-10-19T06:08:39.594Z,99902.22
2022-10-19T06:09:41.780Z,99910.91
2022-10-19T06:10:45.129Z,99907.75
2022-10-19T06:11:47.866Z,99899.72
2022-10-19T06:12:50.010Z,99896.75
2022-10-19T06:13:55.324Z,99902.69
2022-10-19T06:14:57.438Z,99901.84
2022-10-19T06:15:59.589Z,99893.28
2022-10-19T06:17:01.743Z,99898.41
2022-10-19T06:18:04.635Z,99900.72
2022-10-19T06:19:06.832Z,99900.72
2022-10-19T06:20:09.532Z,99892.81
2022-10-19T06:21:15.571Z,99904.34
2022-10-19T06:22:18.846Z,99902.44
2022-10-19T06:23:21.000Z,99893.88
2022-10-19T06:24:23.398Z,99897.22
2022-10-19T06:25:25.621Z,99897.34
2022-10-19T06:26:28.666Z,99898.81
2022-10-19T06:27:32.410Z,99899.69
2022-10-19T06:28:36.485Z,99899.56
2022-10-19T06:29:38.627Z,99892.25
2022-10-19T06:30:41.460Z,99892.78
2022-10-19T06:31:47.662Z,99888.78
2022-10-19T06:32:49.954Z,99893.63
2022-10-19T06:33:52.238Z,99892.78
2022-10-19T06:34:56.679Z,99883.88
2022-10-19T06:36:06.993Z,99886.59
2022-10-19T06:37:09.154Z,99893.16
2022-10-19T06:38:13.681Z,99889.34
2022-10-19T06:39:15.969Z,99881.63
2022-10-19T06:40:18.227Z,99884.81
2022-10-19T06:41:20.888Z,99870.59
2022-10-19T06:42:23.012Z,99886.09
2022-10-19T06:43:25.426Z,99887.00
2022-10-19T06:44:27.594Z,99891.28
2022-10-19T06:45:34.825Z,99895.34
2022-10-19T06:46:38.385Z,99885.56
2022-10-19T06:47:40.720Z,99888.09
2022-10-19T06:48:43.192Z,99892.28
2022-10-19T06:49:45.395Z,99889.34
2022-10-19T06:50:55.963Z,99894.34
2022-10-19T06:51:58.139Z,99880.22
2022-10-19T06:53:00.320Z,99897.25
2022-10-19T06:54:02.776Z,99890.84
2022-10-19T06:55:05.440Z,99894.94
2022-10-19T06:56:08.080Z,99901.28
2022-10-19T06:57:10.435Z,99897.56
2022-10-19T06:58:12.953Z,99899.34
2022-10-19T06:59:15.344Z,99909.13
2022-10-19T07:00:17.608Z,99906.19
2022-10-19T07:01:20.100Z,99895.09
2022-10-19T07:02:22.748Z,99902.31
2022-10-19T07:03:25.743Z,99900.31
2022-10-19T07:04:27.987Z,99901.19
2022-10-19T07:05:30.295Z,99908.41
2022-10-19T07:06:32.480Z,99917.22
2022-10-19T07:07:35.204Z,99917.84
2022-10-19T07:08:38.825Z,99922.38
2022-10-19T07:09:41.052Z,99919.88
2022-10-19T07:10:43.256Z,99919.72
2022-10-19T07:11:46.320Z,99927.88
2022-10-19T07:12:48.596Z,99931.06
2022-10-19T07:13:52.477Z,99937.03
2022-10-19T07:14:55.530Z,99945.53
2022-10-19T07:15:59.696Z,99940.25
2022-10-19T07:17:01.945Z,99937.78
2022-10-19T07:18:04.200Z,99935.09
2022-10-19T07:19:06.389Z,99938.59
2022-10-19T07:20:10.614Z,99937.59
2022-10-19T07:21:15.375Z,99935.09
2022-10-19T07:22:23.143Z,99932.44
2022-10-19T07:23:29.404Z,99929.41
2022-10-19T07:24:31.592Z,99933.50
2022-10-19T07:25:33.967Z,99932.78
2022-10-19T07:26:36.427Z,99933.63
2022-10-19T07:27:40.347Z,99937.25
2022-10-19T07:28:44.902Z,99938.50
2022-10-19T07:29:47.052Z,99942.16
2022-10-19T07:30:49.289Z,99940.47
2022-10-19T07:31:51.478Z,99938.34
2022-10-19T07:32:53.671Z,99943.91
2022-10-19T07:33:58.130Z,99942.28
2022-10-19T07:35:00.426Z,99943.56
2022-10-19T07:36:05.792Z,99939.28
2022-10-19T07:37:07.933Z,99940.47
2022-10-19T07:38:10.276Z,99952.78
2022-10-19T07:39:13.083Z,99952.78
2022-10-19T07:40:15.312Z,99947.31
2022-10-19T07:41:19.735Z,99947.56
2022-10-19T07:43:29.304Z,99944.56
2022-10-19T07:44:31.422Z,99948.78
2022-10-19T07:45:33.643Z,99942.91
2022-10-19T07:46:37.077Z,99945.97
2022-10-19T07:47:39.293Z,99945.84
2022-10-19T07:48:42.073Z,99938.56
2022-10-19T07:49:44.485Z,99934.38
2022-10-19T07:50:49.438Z,99943.00
2022-10-19T07:51:54.066Z,99939.16
2022-10-19T07:52:56.464Z,99941.03
2022-10-19T07:53:59.276Z,99938.03
2022-10-19T07:55:01.546Z,99938.97
2022-10-19T07:56:07.999Z,99936.69
2022-10-19T07:57:12.330Z,99937.66
2022-10-19T07:58:14.485Z,99930.66
2022-10-19T07:59:17.258Z,99948.16
2022-10-19T08:00:19.570Z,99949.09
2022-10-19T08:01:24.452Z,99940.53
2022-10-19T08:02:30.957Z,99946.25
2022-10-19T08:04:31.779Z,99952.59
2022-10-19T08:05:07.616Z,99951.03
2022-10-19T08:06:16.480Z,99958.09
2022-10-19T08:07:18.622Z,99958.88
2022-10-19T08:08:20.766Z,99959.84
2022-10-19T08:09:47.763Z,99963.66
2022-10-19T08:10:45.199Z,99975.88
2022-10-19T08:11:47.415Z,99973.94
2022-10-19T08:12:49.600Z,99969.22
2022-10-19T08:13:52.505Z,99965.88
2022-10-19T08:14:54.641Z,99973.00
2022-10-19T08:15:56.777Z,99970.09
2022-10-19T08:16:59.014Z,99978.31
2022-10-19T08:18:01.373Z,99975.91
2022-10-19T08:19:07.077Z,99975.91
2022-10-19T08:20:09.631Z,99983.16
2022-10-19T08:21:11.777Z,99970.66
2022-10-19T08:22:14.106Z,99975.88
2022-10-19T08:23:16.387Z,99973.50
2022-10-19T08:24:20.243Z,99983.34
2022-10-19T08:25:22.520Z,99980.97
2022-10-19T08:26:25.549Z,99989.44
2022-10-19T08:27:29.029Z,99991.13
2022-10-19T08:28:31.235Z,99991.44
2022-10-19T08:29:33.361Z,99985.88
2022-10-19T08:30:36.832Z,99984.72
2022-10-19T08:31:39.895Z,99984.13
2022-10-19T08:32:42.950Z,99983.72
2022-10-19T08:33:45.606Z,99979.84
2022-10-19T08:34:47.742Z,99982.69
2022-10-19T08:35:49.936Z,99978.78
2022-10-19T08:36:52.886Z,99987.06
2022-10-19T08:37:57.270Z,99986.44
2022-10-19T08:39:02.097Z,99982.44
2022-10-19T08:40:05.068Z,99980.72
2022-10-19T08:41:23.033Z,99984.44
2022-10-19T08:42:47.733Z,99989.97
2022-10-19T08:44:16.449Z,100004.50
2022-10-19T08:45:30.526Z,100003.75
2022-10-19T08:46:54.262Z,100000.13
2022-10-19T08:48:04.491Z,99992.69
2022-10-19T08:49:10.037Z,100002.47
2022-10-19T08:50:42.422Z,99997.47
2022-10-19T08:51:49.541Z,100001.19
2022-10-19T08:53:03.883Z,99990.84
2022-10-19T08:54:12.335Z,99996.06
2022-10-19T08:55:21.577Z,99990.38
2022-10-19T08:56:49.849Z,99988.44
2022-10-19T08:58:02.895Z,99983.16
2022-10-19T08:59:32.230Z,99983.97
2022-10-19T09:01:11.233Z,99987.44
2022-10-19T09:02:32.653Z,99981.72
2022-10-19T09:03:56.146Z,99983.34
2022-10-19T09:05:05.561Z,99978.56
2022-10-19T09:06:25.729Z,99979.97
2022-10-19T09:07:34.057Z,99982.47
2022-10-19T09:08:38.662Z,99986.75
2022-10-19T09:09:53.956Z,99991.03
2022-10-19T09:10:57.265Z,99982.56
2022-10-19T09:12:05.778Z,99978.72
2022-10-19T09:13:36.411Z,99976.69
2022-10-19T09:14:58.059Z,99987.78
2022-10-19T09:16:00.951Z,99986.19
2022-10-19T09:17:10.623Z,99976.22
2022-10-19T09:18:22.221Z,99983.41
2022-10-19T09:19:29.945Z,99993.16
2022-10-19T09:20:38.115Z,99996.81
2022-10-19T09:22:01.811Z,100006.34
2022-10-19T09:23:19.850Z,99999.22
2022-10-19T09:24:48.853Z,100003.31
2022-10-19T09:25:51.742Z,100002.50
2022-10-19T09:26:57.341Z,100008.88
2022-10-19T09:28:14.892Z,100007.38
2022-10-19T09:29:22.957Z,100018.25
2022-10-19T09:30:25.193Z,100023.66
2022-10-19T09:31:38.202Z,100026.81
2022-10-19T09:32:42.828Z,100030.91
2022-10-19T09:33:52.081Z,100036.81
2022-10-19T09:34:58.736Z,100033.63
2022-10-19T09:36:03.332Z,100033.50
2022-10-19T09:37:05.795Z,100032.59
2022-10-19T09:38:10.531Z,100044.75
2022-10-19T09:39:13.833Z,100043.66
2022-10-19T09:40:22.578Z,100031.44
2022-10-19T09:41:25.168Z,100046.78
2022-10-19T09:42:36.810Z,100044.84
2022-10-19T09:43:39.358Z,100044.31
2022-10-19T09:44:41.627Z,100054.88
2022-10-19T09:45:46.427Z,100057.59
2022-10-19T09:46:53.498Z,100058.81
2022-10-19T09:47:58.274Z,100058.25
2022-10-19T09:49:04.646Z,100059.56
2022-10-19T09:50:09.627Z,100059.41
2022-10-19T09:51:14.736Z,100063.41
2022-10-19T09:52:24.305Z,100056.38
2022-10-19T09:53:28.018Z,100054.53
2022-10-19T09:54:38.687Z,100050.97
2022-10-19T09:56:55.990Z,100036.97
2022-10-19T09:58:04.479Z,100041.97
2022-10-19T09:59:22.181Z,100043.25
2022-10-19T10:00:37.198Z,100035.38
2022-10-19T10:01:43.539Z,100046.16
2022-10-19T10:02:55.317Z,100046.38
2022-10-19T10:04:08.119Z,100042.84
2022-10-19T10:05:15.166Z,100044.38
2022-10-19T10:06:17.875Z,100048.31
2022-10-19T10:07:20.159Z,100047.25
2022-10-19T10:08:29.582Z,100044.81
2022-10-19T10:09:38.049Z,100054.81
2022-10-19T10:10:45.705Z,100046.75
2022-10-19T10:11:50.759Z,100053.19
2022-10-19T10:12:53.294Z,100052.25
2022-10-19T10:13:57.587Z,100047.66
2022-10-19T10:14:59.840Z,100045.63
2022-10-19T10:16:06.079Z,100049.38
2022-10-19T10:17:20.877Z,100042.66
2022-10-19T10:18:25.075Z,100053.38
2022-10-19T10:19:29.322Z,100058.38
2022-10-19T10:20:32.489Z,100062.13
2022-10-19T10:21:45.535Z,100071.34
2022-10-19T10:22:57.915Z,100067.09
2022-10-19T10:24:17.585Z,100083.03
2022-10-19T10:25:21.483Z,100080.81
2022-10-19T10:26:25.991Z,100075.78
2022-10-19T10:27:34.742Z,100077.88
2022-10-19T10:28:47.453Z,100069.63
2022-10-19T10:31:06.237Z,100080.00
2022-10-19T10:32:16.221Z,100082.56
2022-10-19T10:33:40.426Z,100070.47
2022-10-19T10:35:00.757Z,100071.03
2022-10-19T10:36:08.315Z,100069.75
2022-10-19T10:37:36.124Z,100069.06
2022-10-19T10:38:51.987Z,100067.53
2022-10-19T10:39:59.172Z,100068.91
2022-10-19T10:41:15.562Z,100078.94
2022-10-19T10:42:22.140Z,100070.09
2022-10-19T10:43:32.445Z,100083.16
2022-10-19T10:44:36.674Z,100080.34
2022-10-19T10:45:46.198Z,100075.53
2022-10-19T10:46:58.288Z,100071.41
2022-10-19T10:48:27.071Z,100066.66
2022-10-19T10:49:34.986Z,100079.13
2022-10-19T10:50:37.524Z,100073.28
2022-10-19T10:51:49.213Z,100077.81
2022-10-19T10:53:00.762Z,100072.97
2022-10-19T10:54:19.543Z,100081.22
2022-10-19T10:55:21.757Z,100076.00
2022-10-19T10:56:33.549Z,100068.53
2022-10-19T10:57:43.375Z,100070.09
2022-10-19T10:58:55.868Z,100074.34
2022-10-19T11:00:13.448Z,100067.22
2022-10-19T11:01:20.519Z,100072.09
2022-10-19T11:02:36.604Z,100075.91
2022-10-19T11:03:46.314Z,100074.28
2022-10-19T11:05:00.485Z,100064.03
2022-10-19T11:06:02.784Z,100074.22
2022-10-19T11:07:18.220Z,100074.69
2022-10-19T11:08:41.500Z,100071.72
2022-10-19T11:09:50.742Z,100075.91
2022-10-19T11:11:15.648Z,100076.25
2022-10-19T11:12:23.954Z,100070.25
2022-10-19T11:13:48.938Z,100073.66
2022-10-19T11:15:00.680Z,100066.09
2022-10-19T11:16:12.503Z,100069.78
2022-10-19T11:17:21.173Z,100073.53
2022-10-19T11:18:32.173Z,100079.53
2022-10-19T11:19:39.402Z,100071.91
2022-10-19T11:20:53.189Z,100066.03
2022-10-19T11:22:13.357Z,100069.53
2022-10-19T11:23:35.619Z,100065.88
2022-10-19T11:25:01.850Z,100058.25
2022-10-19T11:26:15.422Z,100058.19
2022-10-19T11:27:23.278Z,100039.72
2022-10-19T11:28:25.360Z,100039.41
2022-10-19T11:29:55.598Z,100054.53
2022-10-19T11:31:19.222Z,100040.44
2022-10-19T11:32:40.030Z,100048.69
2022-10-19T11:33:49.223Z,100044.22
2022-10-19T11:35:33.069Z,100040.88
2022-10-19T11:36:59.213Z,100045.59
2022-10-19T11:38:33.493Z,100040.75
2022-10-19T11:39:43.045Z,100029.00
2022-10-19T11:41:16.772Z,100037.16
2022-10-19T11:43:04.873Z,100038.69
2022-10-19T11:44:12.787Z,100042.25
2022-10-19T11:45:41.626Z,100037.28
2022-10-19T11:46:54.368Z,100039.19
2022-10-19T11:48:28.457Z,100028.63
2022-10-19T11:49:59.505Z,100030.53
2022-10-19T11:51:23.115Z,100023.09
2022-10-19T11:52:49.400Z,100028.31
2022-10-19T11:54:14.542Z,100032.34
2022-10-19T11:55:27.542Z,100040.16
2022-10-19T11:57:02.469Z,100022.16
2022-10-19T11:58:34.475Z,100032.00
2022-10-19T11:59:49.300Z,100022.34
2022-10-19T12:01:15.928Z,100029.34
2022-10-19T12:02:50.809Z,100027.88
2022-10-19T12:04:21.655Z,100022.22
2022-10-19T12:05:40.911Z,100024.00
2022-10-19T12:07:17.564Z,100023.84
2022-10-19T12:08:41.766Z,100029.94
2022-10-19T12:09:50.519Z,100019.34
2022-10-19T12:11:11.344Z,100026.88
2022-10-19T12:12:33.909Z,100026.63
2022-10-19T12:13:44.642Z,100025.66
2022-10-19T12:14:52.612Z,100029.97
2022-10-19T12:15:57.907Z,100024.03
2022-10-19T12:17:07.886Z,100025.69
2022-10-19T12:18:27.947Z,100020.44
2022-10-19T12:19:36.915Z,100011.88
2022-10-19T12:20:45.799Z,100018.38
2022-10-19T12:21:48.666Z,100019.44
2022-10-19T12:22:51.150Z,100012.75
2022-10-19T12:23:55.139Z,100007.00
2022-10-19T12:25:01.883Z,100002.38
2022-10-19T12:26:08.448Z,100017.28
2022-10-19T12:27:16.324Z,100015.19
2022-10-19T12:28:35.300Z,100013.34
2022-10-19T12:29:41.175Z,100026.41
2022-10-19T12:30:43.518Z,100020.69
2022-10-19T12:31:50.200Z,100020.81
2022-10-19T12:33:14.431Z,100020.94
2022-10-19T12:34:27.566Z,100018.06
2022-10-19T12:35:47.168Z,100008.66
2022-10-19T12:36:58.870Z,100013.19
2022-10-19T12:38:19.617Z,100018.25
2022-10-19T12:39:46.233Z,100011.69
2022-10-19T12:41:10.571Z,100018.53
2022-10-19T12:42:53.046Z,100005.22
2022-10-19T12:44:26.230Z,100008.94
2022-10-19T12:45:35.772Z,100003.63
2022-10-19T12:46:51.736Z,100000.69
2022-10-19T12:48:07.819Z,99993.75
2022-10-19T12:49:36.523Z,99991.19
2022-10-19T12:50:51.015Z,99999.56
2022-10-19T12:51:55.023Z,99988.13
2022-10-19T12:52:57.209Z,99986.41
2022-10-19T12:54:09.530Z,99993.25
2022-10-19T12:55:17.495Z,99995.19
2022-10-19T12:56:24.076Z,99988.31
2022-10-19T12:57:29.551Z,99982.69
2022-10-19T12:58:47.458Z,99986.31
2022-10-19T13:00:00.571Z,99982.00
2022-10-19T13:01:05.468Z,99982.69
2022-10-19T13:02:26.571Z,99982.03
2022-10-19T13:03:38.114Z,99976.78
2022-10-19T13:04:53.295Z,99975.41
2022-10-19T13:05:58.255Z,99965.56